Buoy 41503

sailwx.info

Track history (hours):
 
Tides and Currents Weather Stations Pressure Air Temp Water Temp Dewpoint Dewpoint Depression Visibility Wind Speed Wind Dir Waves Ship Positions

Drifting buoy 41503

Last reported at 2015-Sep-04 01:48 UTC. Time now 2015-Sep-04 03:53 UTC.
Position N 37°41' W 064°05'.

Water temperature 27.4 ° C

Date/timePositionNaut miles runAvg speedWind from/ knotsBaromVisibWave heightAir tempDewpointWater temp
2015-Sep-04 01:48N 37°41' W 064°05'0 0.0 27.4
2015-Sep-04 01:41N 37°41' W 064°05'1 1.4 27.4
2015-Sep-04 01:01N 37°41' W 064°03'137.4 27.4
2015-Sep-04 00:59N 37°41' W 064°02'0 0.3 27.4
2015-Sep-03 23:53N 37°41' W 064°01'2 1.3 27.4
2015-Sep-03 22:13N 37°41' W 063°59'2 6.4 27.6
2015-Sep-03 21:57N 37°41' W 063°56'1 0.6 27.6
2015-Sep-03 20:10N 37°41' W 063°55'0 0.0 27.6
2015-Sep-03 20:01N 37°41' W 063°55'0 3.1 27.6
2015-Sep-03 19:57N 37°41' W 063°55'1 1.0 27.6
2015-Sep-03 18:54N 37°41' W 063°54'3 0.9 27.7
2015-Sep-03 15:13N 37°42' W 063°50'132.1 27.5
2015-Sep-03 15:11N 37°42' W 063°48'2 0.5 27.4
2015-Sep-03 12:11N 37°43' W 063°47'113.7 27.3
2015-Sep-03 12:08N 37°44' W 063°46'0 0.0 27.3
2015-Sep-03 11:39N 37°44' W 063°46'1 1.3 27.3
2015-Sep-03 10:53N 37°44' W 063°45'2 1.2 27.3
2015-Sep-03 09:12N 37°45' W 063°42'0 0.0 27.3
2015-Sep-03 09:08N 37°45' W 063°42'0 6.2 27.3
2015-Sep-03 09:04N 37°45' W 063°42'2 1.0 27.3
2015-Sep-03 06:58N 37°47' W 063°40'2 1.3 27.3
2015-Sep-03 05:14N 37°48' W 063°38'217.2 27.3
2015-Sep-03 05:07N 37°50' W 063°36'0 0.0 27.3
2015-Sep-03 02:55N 37°50' W 063°36'2 2.2 27.4
2015-Sep-03 01:59N 37°51' W 063°35'3 0.7 27.4
2015-Sep-02 20:57N 37°54' W 063°34'1 6.7 27.9
2015-Sep-02 20:50N 37°55' W 063°34'0 0.0 27.9
2015-Sep-02 20:11N 37°55' W 063°34'1 0.5 27.9
2015-Sep-02 19:06N 37°56' W 063°33'3 0.8 27.9
2015-Sep-02 14:48N 37°59' W 063°33'1 0.8 27.5
2015-Sep-02 13:55N 37°60' W 063°33'352.5 27.4
2015-Sep-02 13:52N 38°02' W 063°34'0 0.0 27.4
2015-Sep-02 11:05N 38°02' W 063°34'0 2.8 27.3
2015-Sep-02 11:02N 38°02' W 063°34'0 0.9 27.3
2015-Sep-02 10:59N 38°02' W 063°34'130.0 27.3
2015-Sep-02 10:56N 38°04' W 063°34'128.0 27.3
2015-Sep-02 10:53N 38°02' W 063°33'1 0.8 27.3
2015-Sep-02 09:18N 38°04' W 063°34'1 0.7 27.4
2015-Sep-02 07:08N 38°05' W 063°32'213.5 27.3
2015-Sep-02 06:58N 38°06' W 063°34'2 1.3 27.3
2015-Sep-02 05:17N 38°08' W 063°36'2 0.4 27.4
2015-Sep-02 00:50N 38°09' W 063°36'0 0.0 27.4
2015-Sep-02 00:41N 38°09' W 063°36'2 3.5 27.4
2015-Sep-02 00:03N 38°11' W 063°38'0 0.0 27.4
2015-Sep-01 23:57N 38°11' W 063°38'0 0.0 27.4
2015-Sep-01 23:53N 38°11' W 063°38'1 0.5 27.4
2015-Sep-01 21:06N 38°11' W 063°40'227.6 27.4
2015-Sep-01 21:02N 38°12' W 063°42'0 0.0 27.4
2015-Sep-01 19:18N 38°12' W 063°42'1 0.6 27.6
2015-Sep-01 17:02N 38°12' W 063°44'1 0.5 27.6
2015-Sep-01 16:00N 38°13' W 063°44'1 5.7 27.5
2015-Sep-01 15:53N 38°13' W 063°45'0 0.0 27.5
2015-Sep-01 15:09N 38°13' W 063°45'2 0.5 27.5
2015-Sep-01 11:11N 38°14' W 063°46'224.2 27.4
2015-Sep-01 11:06N 38°16' W 063°48'1 0.3 27.4
2015-Sep-01 08:58N 38°16' W 063°49'2 1.9 27.4
2015-Sep-01 08:01N 38°17' W 063°51'1 1.7 27.4
2015-Sep-01 07:11N 38°17' W 063°53'0 0.0 27.4
2015-Sep-01 07:07N 38°17' W 063°53'3 0.7 27.4
2015-Sep-01 02:48N 38°17' W 063°57'1 5.6 27.5
2015-Sep-01 02:39N 38°17' W 063°58'1 1.8 27.5
2015-Sep-01 02:02N 38°17' W 063°59'0 0.4 27.5
2015-Sep-01 01:00N 38°17' W 063°59'1 0.6 27.5
2015-Aug-31 23:48N 38°17' W 064°00'0 0.4 27.5
2015-Aug-31 23:10N 38°17' W 064°01'1 5.6 27.5
2015-Aug-31 23:04N 38°17' W 064°01'1 0.5 27.5
2015-Aug-31 21:13N 38°18' W 064°02'0 1.4 27.6
2015-Aug-31 21:09N 38°18' W 064°02'2 1.4 27.6
2015-Aug-31 19:50N 38°17' W 064°05'0 0.3 27.6
2015-Aug-31 18:56N 38°17' W 064°05'2 1.1 27.6
2015-Aug-31 17:12N 38°17' W 064°07'2 0.7 27.5
2015-Aug-31 13:50N 38°16' W 064°10'2 1.0 27.4
2015-Aug-31 12:01N 38°16' W 064°12'0 0.6 27.4
2015-Aug-31 11:34N 38°16' W 064°12'1 2.4 27.4
2015-Aug-31 11:20N 38°16' W 064°12'1 1.0 27.4
2015-Aug-31 10:13N 38°16' W 064°13'1 3.0 27.4
2015-Aug-31 10:02N 38°16' W 064°14'1 0.6 27.4
2015-Aug-31 09:08N 38°16' W 064°14'1 8.7 27.4
2015-Aug-31 09:04N 38°16' W 064°15'0 0.4 27.4
2015-Aug-31 08:01N 38°16' W 064°16'7 1.4 27.5
2015-Aug-31 03:02N 38°15' W 064°24'3 1.0 27.6
2015-Aug-30 23:50N 38°14' W 064°27'1 8.0 27.4
2015-Aug-30 23:43N 38°13' W 064°28'0 0.0 27.4
2015-Aug-30 23:03N 38°13' W 064°28'1 6.7 27.5
2015-Aug-30 22:57N 38°13' W 064°29'0 0.0 27.5
2015-Aug-30 21:55N 38°13' W 064°29'1 7.7 27.6
2015-Aug-30 21:48N 38°12' W 064°30'2 1.3 27.6
2015-Aug-30 20:07N 38°11' W 064°32'0 0.4 27.6
2015-Aug-30 19:08N 38°10' W 064°32'0 2.5 27.6
2015-Aug-30 18:59N 38°11' W 064°32'7 2.2 27.6
2015-Aug-30 15:48N 38°08' W 064°40'0 0.0 27.6
2015-Aug-30 15:04N 38°08' W 064°40'1 8.7 27.6
2015-Aug-30 14:54N 38°07' W 064°41'2 0.9 27.6
2015-Aug-30 12:14N 38°06' W 064°44'1 9.9 27.5
2015-Aug-30 12:07N 38°05' W 064°45'2 1.1 27.5
2015-Aug-30 09:59N 38°03' W 064°47'0 3.0 27.5
2015-Aug-30 09:55N 38°03' W 064°47'1 1.0 27.5
2015-Aug-30 09:16N 38°03' W 064°48'1 1.6 27.5
2015-Aug-30 08:47N 38°02' W 064°48'1 1.5 27.5
2015-Aug-30 08:16N 38°02' W 064°49'1 8.1 27.5
2015-Aug-30 08:09N 38°01' W 064°50'2 1.0 27.5
2015-Aug-30 05:57N 38°00' W 064°53'6 1.4 27.5
2015-Aug-30 01:52N 37°56' W 064°58'1 1.6 27.6
2015-Aug-30 01:05N 37°55' W 064°59'0 0.0 27.6
2015-Aug-30 01:02N 37°55' W 064°59'1 9.6 27.6
2015-Aug-30 00:55N 37°55' W 065°00'1 5.7 27.6
2015-Aug-30 00:47N 37°55' W 064°60'2 1.1 27.6
2015-Aug-29 23:13N 37°54' W 065°01'139.6 27.6
2015-Aug-29 23:11N 37°53' W 065°02'1 1.2 27.6
2015-Aug-29 22:12N 37°52' W 065°03'3 1.1 27.6
2015-Aug-29 19:18N 37°50' W 065°06'0 2.0 27.9
2015-Aug-29 19:12N 37°50' W 065°06'0 0.0 27.9
2015-Aug-29 18:57N 37°50' W 065°06'11 1.4 27.9
2015-Aug-29 11:02N 37°42' W 065°16'1 7.2 27.5
2015-Aug-29 10:52N 37°42' W 065°18'0 0.0 27.6
2015-Aug-29 10:11N 37°42' W 065°18'1 6.1 27.6
2015-Aug-29 10:00N 37°41' W 065°19'1 0.9 27.6
2015-Aug-29 09:10N 37°40' W 065°19'1 0.6 27.6
2015-Aug-29 07:54N 37°39' W 065°19'4 0.9 27.6
2015-Aug-29 03:05N 37°35' W 065°20'1 1.3 27.6
2015-Aug-29 02:02N 37°34' W 065°21'1 0.4 27.6
2015-Aug-28 23:39N 37°33' W 065°22'2 0.8 27.6
2015-Aug-28 21:05N 37°31' W 065°23'0 0.4 27.6
2015-Aug-28 20:04N 37°31' W 065°23'0 2.6 27.6
2015-Aug-28 19:57N 37°31' W 065°23'2 0.4 27.6
2015-Aug-28 16:05N 37°29' W 065°23'1 0.8 27.6
2015-Aug-28 14:52N 37°28' W 065°23'0 0.6 27.6
2015-Aug-28 14:06N 37°28' W 065°23'211.2 27.6
2015-Aug-28 13:56N 37°26' W 065°22'0 0.0 27.6
2015-Aug-28 11:59N 37°26' W 065°22'112.2 27.6
2015-Aug-28 11:54N 37°25' W 065°22'2 1.2 27.6
2015-Aug-28 09:50N 37°23' W 065°20'3 1.5 27.6
2015-Aug-28 08:04N 37°21' W 065°18'0 0.9 27.6
2015-Aug-28 08:00N 37°21' W 065°18'0 4.2 27.6
2015-Aug-28 07:56N 37°21' W 065°18'7 4.3 27.6
2015-Aug-28 06:15N 37°16' W 065°11'0 0.0 27.7
2015-Aug-28 02:33N 37°16' W 065°11'0 1.2 27.9
2015-Aug-28 02:30N 37°16' W 065°11'1 9.0 27.9
2015-Aug-28 02:24N 37°15' W 065°10'0 0.0 27.9
2015-Aug-28 01:47N 37°15' W 065°10'0 0.8 27.9
2015-Aug-28 01:40N 37°15' W 065°10'1 1.3 27.9
2015-Aug-28 00:52N 37°15' W 065°09'1 1.1 27.9
2015-Aug-28 00:05N 37°14' W 065°08'0 7.2 27.9
2015-Aug-28 00:03N 37°14' W 065°08'1 1.4 27.9
2015-Aug-27 23:10N 37°13' W 065°07'216.2 27.9
2015-Aug-27 23:03N 37°12' W 065°05'0 0.0 27.9
2015-Aug-27 21:58N 37°12' W 065°05'0 0.0 27.9
2015-Aug-27 21:55N 37°12' W 065°05'2 1.2 27.9
2015-Aug-27 20:16N 37°11' W 065°04'1 1.3 27.9
2015-Aug-27 19:49N 37°10' W 065°03'4 1.8 27.9
2015-Aug-27 17:54N 37°09' W 064°59'350.5 27.9
2015-Aug-27 17:51N 37°07' W 064°56'0 0.0 27.9
2015-Aug-27 16:18N 37°07' W 064°56'0 4.9 27.9
2015-Aug-27 16:12N 37°07' W 064°56'0 0.0 27.9
2015-Aug-27 16:04N 37°07' W 064°56'213.8 27.9
2015-Aug-27 15:57N 37°07' W 064°54'5 1.3 27.9
2015-Aug-27 12:10N 37°06' W 064°48'1 8.3 27.7
2015-Aug-27 12:06N 37°06' W 064°47'3 1.5 27.7
2015-Aug-27 10:12N 37°06' W 064°43'213.0 27.7
2015-Aug-27 10:02N 37°06' W 064°41'1 0.6 27.7
2015-Aug-27 08:16N 37°06' W 064°39'0 1.4 27.7
2015-Aug-27 08:10N 37°06' W 064°39'338.9 27.7
2015-Aug-27 08:06N 37°06' W 064°36'6 1.2 27.7
2015-Aug-27 02:52N 37°07' W 064°28'111.2 27.8
2015-Aug-27 02:45N 37°07' W 064°26'0 0.0 27.8
2015-Aug-27 02:06N 37°07' W 064°26'3 3.0 27.8
2015-Aug-27 01:04N 37°08' W 064°23'4 1.4 27.8
2015-Aug-26 22:10N 37°09' W 064°18'0 1.0 27.8
2015-Aug-26 22:04N 37°09' W 064°18'1 4.0 27.8
2015-Aug-26 21:55N 37°09' W 064°17'3 1.7 27.8
2015-Aug-26 20:08N 37°11' W 064°14'5 2.5 27.7
2015-Aug-26 18:12N 37°12' W 064°08'0 0.0 27.7
2015-Aug-26 18:07N 37°12' W 064°08'2 0.7 27.7
2015-Aug-26 14:46N 37°13' W 064°05'0 2.2 27.6
2015-Aug-26 14:38N 37°14' W 064°06'131.7
2015-Aug-26 14:36N 37°14' W 064°05'0 0.0 27.6
2015-Aug-26 13:54N 37°14' W 064°05'1 1.4 27.6
2015-Aug-26 13:01N 37°15' W 064°03'5 1.3 27.6
2015-Aug-26 09:00N 37°17' W 063°58'110.7 27.4
2015-Aug-26 08:55N 37°17' W 063°57'1 1.5 27.4
2015-Aug-26 08:18N 37°17' W 063°55'4 1.3 27.5
2015-Aug-26 05:02N 37°21' W 063°53'222.3 27.7
2015-Aug-26 04:57N 37°23' W 063°53'1 0.6 27.7
2015-Aug-26 03:06N 37°24' W 063°52'0 0.0 27.9
2015-Aug-26 02:24N 37°24' W 063°52'1 0.8 28.0
2015-Aug-26 01:10N 37°25' W 063°52'1 1.7 28.2
2015-Aug-26 00:47N 37°25' W 063°52'123.8 28.2
2015-Aug-26 00:45N 37°26' W 063°51'0 0.2 28.2
2015-Aug-25 23:54N 37°26' W 063°52'2 0.6 28.1
2015-Aug-25 20:39N 37°28' W 063°52'0 0.8 29.4
2015-Aug-25 20:01N 37°29' W 063°52'1 0.7 29.5
2015-Aug-25 18:57N 37°29' W 063°51'3 1.1 30.0
2015-Aug-25 15:52N 37°32' W 063°51'0 0.0 28.0
2015-Aug-25 15:08N 37°32' W 063°51'0 1.3 27.8
2015-Aug-25 14:59N 37°32' W 063°50'130.5 27.8
2015-Aug-25 14:57N 37°33' W 063°51'3 0.7 27.8
2015-Aug-25 11:23N 37°36' W 063°52'1 1.7 27.3
2015-Aug-25 11:01N 37°36' W 063°51'2 1.2 27.3
2015-Aug-25 09:11N 37°38' W 063°53'1 9.0 27.3
2015-Aug-25 09:07N 37°39' W 063°53'1 0.5 27.3
2015-Aug-25 06:58N 37°39' W 063°54'212.9 27.4
2015-Aug-25 06:49N 37°41' W 063°56'0 0.0 27.4
2015-Aug-25 06:46N 37°41' W 063°56'0 0.0 27.4
2015-Aug-25 05:14N 37°41' W 063°56'225.5 27.4
2015-Aug-25 05:09N 37°42' W 063°58'0 0.0 27.4
2015-Aug-25 03:31N 37°42' W 063°58'0 0.0 27.4
2015-Aug-25 02:48N 37°42' W 063°58'0 0.0 27.4
2015-Aug-25 02:40N 37°42' W 063°58'1 1.0 27.4
2015-Aug-25 01:54N 37°42' W 063°59'   27.4
Track history (hours):
 
Tides and Currents Weather Stations Pressure Air Temp Water Temp Dewpoint Dewpoint Depression Visibility Wind Speed Wind Dir Waves Ship Positions

Drifting buoy 41503

Last reported at 2015-Sep-04 01:48 UTC. Time now 2015-Sep-04 03:53 UTC.
Position N 37°41' W 064°05'.

Water temperature 27.4 ° C

Date/timePositionNaut miles runAvg speedWind from/ knotsBaromVisibWave heightAir tempDewpointWater temp
2015-Sep-04 01:48N 37°41' W 064°05'0 0.0 27.4
2015-Sep-04 01:41N 37°41' W 064°05'1 1.4 27.4
2015-Sep-04 01:01N 37°41' W 064°03'137.4 27.4
2015-Sep-04 00:59N 37°41' W 064°02'0 0.3 27.4
2015-Sep-03 23:53N 37°41' W 064°01'2 1.3 27.4
2015-Sep-03 22:13N 37°41' W 063°59'2 6.4 27.6
2015-Sep-03 21:57N 37°41' W 063°56'1 0.6 27.6
2015-Sep-03 20:10N 37°41' W 063°55'0 0.0 27.6
2015-Sep-03 20:01N 37°41' W 063°55'0 3.1 27.6
2015-Sep-03 19:57N 37°41' W 063°55'1 1.0 27.6
2015-Sep-03 18:54N 37°41' W 063°54'3 0.9 27.7
2015-Sep-03 15:13N 37°42' W 063°50'132.1 27.5
2015-Sep-03 15:11N 37°42' W 063°48'2 0.5 27.4
2015-Sep-03 12:11N 37°43' W 063°47'113.7 27.3
2015-Sep-03 12:08N 37°44' W 063°46'0 0.0 27.3
2015-Sep-03 11:39N 37°44' W 063°46'1 1.3 27.3
2015-Sep-03 10:53N 37°44' W 063°45'2 1.2 27.3
2015-Sep-03 09:12N 37°45' W 063°42'0 0.0 27.3
2015-Sep-03 09:08N 37°45' W 063°42'0 6.2 27.3
2015-Sep-03 09:04N 37°45' W 063°42'2 1.0 27.3
2015-Sep-03 06:58N 37°47' W 063°40'2 1.3 27.3
2015-Sep-03 05:14N 37°48' W 063°38'217.2 27.3
2015-Sep-03 05:07N 37°50' W 063°36'0 0.0 27.3
2015-Sep-03 02:55N 37°50' W 063°36'2 2.2 27.4
2015-Sep-03 01:59N 37°51' W 063°35'3 0.7 27.4
2015-Sep-02 20:57N 37°54' W 063°34'1 6.7 27.9
2015-Sep-02 20:50N 37°55' W 063°34'0 0.0 27.9
2015-Sep-02 20:11N 37°55' W 063°34'1 0.5 27.9
2015-Sep-02 19:06N 37°56' W 063°33'3 0.8 27.9
2015-Sep-02 14:48N 37°59' W 063°33'1 0.8 27.5
2015-Sep-02 13:55N 37°60' W 063°33'352.5 27.4
2015-Sep-02 13:52N 38°02' W 063°34'0 0.0 27.4
2015-Sep-02 11:05N 38°02' W 063°34'0 2.8 27.3
2015-Sep-02 11:02N 38°02' W 063°34'0 0.9 27.3
2015-Sep-02 10:59N 38°02' W 063°34'130.0 27.3
2015-Sep-02 10:56N 38°04' W 063°34'128.0 27.3
2015-Sep-02 10:53N 38°02' W 063°33'1 0.8 27.3
2015-Sep-02 09:18N 38°04' W 063°34'1 0.7 27.4
2015-Sep-02 07:08N 38°05' W 063°32'213.5 27.3
2015-Sep-02 06:58N 38°06' W 063°34'2 1.3 27.3
2015-Sep-02 05:17N 38°08' W 063°36'2 0.4 27.4
2015-Sep-02 00:50N 38°09' W 063°36'0 0.0 27.4
2015-Sep-02 00:41N 38°09' W 063°36'2 3.5 27.4
2015-Sep-02 00:03N 38°11' W 063°38'0 0.0 27.4
2015-Sep-01 23:57N 38°11' W 063°38'0 0.0 27.4
2015-Sep-01 23:53N 38°11' W 063°38'1 0.5 27.4
2015-Sep-01 21:06N 38°11' W 063°40'227.6 27.4
2015-Sep-01 21:02N 38°12' W 063°42'0 0.0 27.4
2015-Sep-01 19:18N 38°12' W 063°42'1 0.6 27.6
2015-Sep-01 17:02N 38°12' W 063°44'1 0.5 27.6
2015-Sep-01 16:00N 38°13' W 063°44'1 5.7 27.5
2015-Sep-01 15:53N 38°13' W 063°45'0 0.0 27.5
2015-Sep-01 15:09N 38°13' W 063°45'2 0.5 27.5
2015-Sep-01 11:11N 38°14' W 063°46'224.2 27.4
2015-Sep-01 11:06N 38°16' W 063°48'1 0.3 27.4
2015-Sep-01 08:58N 38°16' W 063°49'2 1.9 27.4
2015-Sep-01 08:01N 38°17' W 063°51'1 1.7 27.4
2015-Sep-01 07:11N 38°17' W 063°53'0 0.0 27.4
2015-Sep-01 07:07N 38°17' W 063°53'3 0.7 27.4
2015-Sep-01 02:48N 38°17' W 063°57'1 5.6 27.5
2015-Sep-01 02:39N 38°17' W 063°58'1 1.8 27.5
2015-Sep-01 02:02N 38°17' W 063°59'0 0.4 27.5
2015-Sep-01 01:00N 38°17' W 063°59'1 0.6 27.5
2015-Aug-31 23:48N 38°17' W 064°00'0 0.4 27.5
2015-Aug-31 23:10N 38°17' W 064°01'1 5.6 27.5
2015-Aug-31 23:04N 38°17' W 064°01'1 0.5 27.5
2015-Aug-31 21:13N 38°18' W 064°02'0 1.4 27.6
2015-Aug-31 21:09N 38°18' W 064°02'2 1.4 27.6
2015-Aug-31 19:50N 38°17' W 064°05'0 0.3 27.6
2015-Aug-31 18:56N 38°17' W 064°05'2 1.1 27.6
2015-Aug-31 17:12N 38°17' W 064°07'2 0.7 27.5
2015-Aug-31 13:50N 38°16' W 064°10'2 1.0 27.4
2015-Aug-31 12:01N 38°16' W 064°12'0 0.6 27.4
2015-Aug-31 11:34N 38°16' W 064°12'1 2.4 27.4
2015-Aug-31 11:20N 38°16' W 064°12'1 1.0 27.4
2015-Aug-31 10:13N 38°16' W 064°13'1 3.0 27.4
2015-Aug-31 10:02N 38°16' W 064°14'1 0.6 27.4
2015-Aug-31 09:08N 38°16' W 064°14'1 8.7 27.4
2015-Aug-31 09:04N 38°16' W 064°15'0 0.4 27.4
2015-Aug-31 08:01N 38°16' W 064°16'7 1.4 27.5
2015-Aug-31 03:02N 38°15' W 064°24'3 1.0 27.6
2015-Aug-30 23:50N 38°14' W 064°27'1 8.0 27.4
2015-Aug-30 23:43N 38°13' W 064°28'0 0.0 27.4
2015-Aug-30 23:03N 38°13' W 064°28'1 6.7 27.5
2015-Aug-30 22:57N 38°13' W 064°29'0 0.0 27.5
2015-Aug-30 21:55N 38°13' W 064°29'1 7.7 27.6
2015-Aug-30 21:48N 38°12' W 064°30'2 1.3 27.6
2015-Aug-30 20:07N 38°11' W 064°32'0 0.4 27.6
2015-Aug-30 19:08N 38°10' W 064°32'0 2.5 27.6
2015-Aug-30 18:59N 38°11' W 064°32'7 2.2 27.6
2015-Aug-30 15:48N 38°08' W 064°40'0 0.0 27.6
2015-Aug-30 15:04N 38°08' W 064°40'1 8.7 27.6
2015-Aug-30 14:54N 38°07' W 064°41'2 0.9 27.6
2015-Aug-30 12:14N 38°06' W 064°44'1 9.9 27.5
2015-Aug-30 12:07N 38°05' W 064°45'2 1.1 27.5
2015-Aug-30 09:59N 38°03' W 064°47'0 3.0 27.5
2015-Aug-30 09:55N 38°03' W 064°47'1 1.0 27.5
2015-Aug-30 09:16N 38°03' W 064°48'1 1.6 27.5
2015-Aug-30 08:47N 38°02' W 064°48'1 1.5 27.5
2015-Aug-30 08:16N 38°02' W 064°49'1 8.1 27.5
2015-Aug-30 08:09N 38°01' W 064°50'2 1.0 27.5
2015-Aug-30 05:57N 38°00' W 064°53'6 1.4 27.5
2015-Aug-30 01:52N 37°56' W 064°58'1 1.6 27.6
2015-Aug-30 01:05N 37°55' W 064°59'0 0.0 27.6
2015-Aug-30 01:02N 37°55' W 064°59'1 9.6 27.6
2015-Aug-30 00:55N 37°55' W 065°00'1 5.7 27.6
2015-Aug-30 00:47N 37°55' W 064°60'2 1.1 27.6
2015-Aug-29 23:13N 37°54' W 065°01'139.6 27.6
2015-Aug-29 23:11N 37°53' W 065°02'1 1.2 27.6
2015-Aug-29 22:12N 37°52' W 065°03'3 1.1 27.6
2015-Aug-29 19:18N 37°50' W 065°06'0 2.0 27.9
2015-Aug-29 19:12N 37°50' W 065°06'0 0.0 27.9
2015-Aug-29 18:57N 37°50' W 065°06'11 1.4 27.9
2015-Aug-29 11:02N 37°42' W 065°16'1 7.2 27.5
2015-Aug-29 10:52N 37°42' W 065°18'0 0.0 27.6
2015-Aug-29 10:11N 37°42' W 065°18'1 6.1 27.6
2015-Aug-29 10:00N 37°41' W 065°19'1 0.9 27.6
2015-Aug-29 09:10N 37°40' W 065°19'1 0.6 27.6
2015-Aug-29 07:54N 37°39' W 065°19'4 0.9 27.6
2015-Aug-29 03:05N 37°35' W 065°20'1 1.3 27.6
2015-Aug-29 02:02N 37°34' W 065°21'1 0.4 27.6
2015-Aug-28 23:39N 37°33' W 065°22'2 0.8 27.6
2015-Aug-28 21:05N 37°31' W 065°23'0 0.4 27.6
2015-Aug-28 20:04N 37°31' W 065°23'0 2.6 27.6
2015-Aug-28 19:57N 37°31' W 065°23'2 0.4 27.6
2015-Aug-28 16:05N 37°29' W 065°23'1 0.8 27.6
2015-Aug-28 14:52N 37°28' W 065°23'0 0.6 27.6
2015-Aug-28 14:06N 37°28' W 065°23'211.2 27.6
2015-Aug-28 13:56N 37°26' W 065°22'0 0.0 27.6
2015-Aug-28 11:59N 37°26' W 065°22'112.2 27.6
2015-Aug-28 11:54N 37°25' W 065°22'2 1.2 27.6
2015-Aug-28 09:50N 37°23' W 065°20'3 1.5 27.6
2015-Aug-28 08:04N 37°21' W 065°18'0 0.9 27.6
2015-Aug-28 08:00N 37°21' W 065°18'0 4.2 27.6
2015-Aug-28 07:56N 37°21' W 065°18'7 4.3 27.6
2015-Aug-28 06:15N 37°16' W 065°11'0 0.0 27.7
2015-Aug-28 02:33N 37°16' W 065°11'0 1.2 27.9
2015-Aug-28 02:30N 37°16' W 065°11'1 9.0 27.9
2015-Aug-28 02:24N 37°15' W 065°10'0 0.0 27.9
2015-Aug-28 01:47N 37°15' W 065°10'0 0.8 27.9
2015-Aug-28 01:40N 37°15' W 065°10'1 1.3 27.9
2015-Aug-28 00:52N 37°15' W 065°09'1 1.1 27.9
2015-Aug-28 00:05N 37°14' W 065°08'0 7.2 27.9
2015-Aug-28 00:03N 37°14' W 065°08'1 1.4 27.9
2015-Aug-27 23:10N 37°13' W 065°07'216.2 27.9
2015-Aug-27 23:03N 37°12' W 065°05'0 0.0 27.9
2015-Aug-27 21:58N 37°12' W 065°05'0 0.0 27.9
2015-Aug-27 21:55N 37°12' W 065°05'2 1.2 27.9
2015-Aug-27 20:16N 37°11' W 065°04'1 1.3 27.9
2015-Aug-27 19:49N 37°10' W 065°03'4 1.8 27.9
2015-Aug-27 17:54N 37°09' W 064°59'350.5 27.9
2015-Aug-27 17:51N 37°07' W 064°56'0 0.0 27.9
2015-Aug-27 16:18N 37°07' W 064°56'0 4.9 27.9
2015-Aug-27 16:12N 37°07' W 064°56'0 0.0 27.9
2015-Aug-27 16:04N 37°07' W 064°56'213.8 27.9
2015-Aug-27 15:57N 37°07' W 064°54'5 1.3 27.9
2015-Aug-27 12:10N 37°06' W 064°48'1 8.3 27.7
2015-Aug-27 12:06N 37°06' W 064°47'3 1.5 27.7
2015-Aug-27 10:12N 37°06' W 064°43'213.0 27.7
2015-Aug-27 10:02N 37°06' W 064°41'1 0.6 27.7
2015-Aug-27 08:16N 37°06' W 064°39'0 1.4 27.7
2015-Aug-27 08:10N 37°06' W 064°39'338.9 27.7
2015-Aug-27 08:06N 37°06' W 064°36'6 1.2 27.7
2015-Aug-27 02:52N 37°07' W 064°28'111.2 27.8
2015-Aug-27 02:45N 37°07' W 064°26'0 0.0 27.8
2015-Aug-27 02:06N 37°07' W 064°26'3 3.0 27.8
2015-Aug-27 01:04N 37°08' W 064°23'4 1.4 27.8
2015-Aug-26 22:10N 37°09' W 064°18'0 1.0 27.8
2015-Aug-26 22:04N 37°09' W 064°18'1 4.0 27.8
2015-Aug-26 21:55N 37°09' W 064°17'3 1.7 27.8
2015-Aug-26 20:08N 37°11' W 064°14'5 2.5 27.7
2015-Aug-26 18:12N 37°12' W 064°08'0 0.0 27.7
2015-Aug-26 18:07N 37°12' W 064°08'2 0.7 27.7
2015-Aug-26 14:46N 37°13' W 064°05'0 2.2 27.6
2015-Aug-26 14:38N 37°14' W 064°06'131.7
2015-Aug-26 14:36N 37°14' W 064°05'0 0.0 27.6
2015-Aug-26 13:54N 37°14' W 064°05'1 1.4 27.6
2015-Aug-26 13:01N 37°15' W 064°03'5 1.3 27.6
2015-Aug-26 09:00N 37°17' W 063°58'110.7 27.4
2015-Aug-26 08:55N 37°17' W 063°57'1 1.5 27.4
2015-Aug-26 08:18N 37°17' W 063°55'4 1.3 27.5
2015-Aug-26 05:02N 37°21' W 063°53'222.3 27.7
2015-Aug-26 04:57N 37°23' W 063°53'1 0.6 27.7
2015-Aug-26 03:06N 37°24' W 063°52'0 0.0 27.9
2015-Aug-26 02:24N 37°24' W 063°52'1 0.8 28.0
2015-Aug-26 01:10N 37°25' W 063°52'1 1.7 28.2
2015-Aug-26 00:47N 37°25' W 063°52'123.8 28.2
2015-Aug-26 00:45N 37°26' W 063°51'0 0.2 28.2
2015-Aug-25 23:54N 37°26' W 063°52'2 0.6 28.1
2015-Aug-25 20:39N 37°28' W 063°52'0 0.8 29.4
2015-Aug-25 20:01N 37°29' W 063°52'1 0.7 29.5
2015-Aug-25 18:57N 37°29' W 063°51'3 1.1 30.0
2015-Aug-25 15:52N 37°32' W 063°51'0 0.0 28.0
2015-Aug-25 15:08N 37°32' W 063°51'0 1.3 27.8
2015-Aug-25 14:59N 37°32' W 063°50'130.5 27.8
2015-Aug-25 14:57N 37°33' W 063°51'3 0.7 27.8
2015-Aug-25 11:23N 37°36' W 063°52'1 1.7 27.3
2015-Aug-25 11:01N 37°36' W 063°51'2 1.2 27.3
2015-Aug-25 09:11N 37°38' W 063°53'1 9.0 27.3
2015-Aug-25 09:07N 37°39' W 063°53'1 0.5 27.3
2015-Aug-25 06:58N 37°39' W 063°54'212.9 27.4
2015-Aug-25 06:49N 37°41' W 063°56'0 0.0 27.4
2015-Aug-25 06:46N 37°41' W 063°56'0 0.0 27.4
2015-Aug-25 05:14N 37°41' W 063°56'225.5 27.4
2015-Aug-25 05:09N 37°42' W 063°58'0 0.0 27.4
2015-Aug-25 03:31N 37°42' W 063°58'0 0.0 27.4
2015-Aug-25 02:48N 37°42' W 063°58'0 0.0 27.4
2015-Aug-25 02:40N 37°42' W 063°58'1 1.0 27.4
2015-Aug-25 01:54N 37°42' W 063°59'   27.4

Dump ship's entire track history